Terminal Aerodrome Forecast
Issued by NWS Boston, MA

Home | Current Version | Previous Version | Text Only | Print | Product List | Glossary Off
Versions: 1 2 3 4 5 6 7 8 9 10 11 12 13 14 15 16 17 18 19 20 21 22 23 24 25 26 27 28 29 30 31 32 33 34 35 36 37 38 39 40 41 42 43 44 45
000 FTUS41 KBOX 071443 AAA TAFPVD TAF AMD KPVD 071443Z 0715/0812 16007KT P6SM BKN010 FM071800 19012KT P6SM BKN010 FM080400 22008KT 6SM BR BKN020 FM080600 22007KT 4SM BR BKN008=

USA.gov is the U.S. government's official web portal to all federal, state and local government web resources and services.